National Weather Service Raw Text Product

Displaying AFOS PIL: TAFOTM Received: 2017-10-13 02:58 UTC


739 
FTUS43 KDMX 130258 AAA
TAFOTM
TAF AMD
KOTM 130258Z 1303/1324 14008KT P6SM BKN060
     FM132300 05009KT P6SM BKN025=